sensor_id;sensor_type;location;lat;lon;timestamp;temperature;humidity
3944;DHT22;1986;52.546;13.428;2024-03-17T00:01:05;5.00;56.80
3944;DHT22;1986;52.546;13.428;2024-03-17T00:03:31;5.00;57.90
3944;DHT22;1986;52.546;13.428;2024-03-17T00:05:59;5.00;57.20
3944;DHT22;1986;52.546;13.428;2024-03-17T00:08:28;5.00;56.30
3944;DHT22;1986;52.546;13.428;2024-03-17T00:10:56;5.00;58.20
3944;DHT22;1986;52.546;13.428;2024-03-17T00:13:22;4.90;57.90
3944;DHT22;1986;52.546;13.428;2024-03-17T00:15:50;4.90;60.40
3944;DHT22;1986;52.546;13.428;2024-03-17T00:18:16;4.90;62.30
3944;DHT22;1986;52.546;13.428;2024-03-17T00:20:43;4.90;63.10
3944;DHT22;1986;52.546;13.428;2024-03-17T00:23:11;4.90;64.30
3944;DHT22;1986;52.546;13.428;2024-03-17T00:25:50;4.90;66.40
3944;DHT22;1986;52.546;13.428;2024-03-17T00:28:16;4.90;69.60
3944;DHT22;1986;52.546;13.428;2024-03-17T00:30:43;4.90;72.00
3944;DHT22;1986;52.546;13.428;2024-03-17T00:33:09;4.80;70.70
3944;DHT22;1986;52.546;13.428;2024-03-17T00:35:36;4.80;72.00
3944;DHT22;1986;52.546;13.428;2024-03-17T00:38:02;4.80;73.40
3944;DHT22;1986;52.546;13.428;2024-03-17T00:40:35;4.80;76.70
3944;DHT22;1986;52.546;13.428;2024-03-17T00:43:03;4.80;77.80
3944;DHT22;1986;52.546;13.428;2024-03-17T00:45:33;4.80;79.60
3944;DHT22;1986;52.546;13.428;2024-03-17T00:47:59;4.80;77.60
3944;DHT22;1986;52.546;13.428;2024-03-17T00:50:26;4.80;76.90
3944;DHT22;1986;52.546;13.428;2024-03-17T00:52:52;4.80;78.40
3944;DHT22;1986;52.546;13.428;2024-03-17T00:55:19;4.80;80.00
3944;DHT22;1986;52.546;13.428;2024-03-17T00:57:45;4.80;79.50
3944;DHT22;1986;52.546;13.428;2024-03-17T01:00:14;4.80;82.00
3944;DHT22;1986;52.546;13.428;2024-03-17T01:02:41;4.80;83.10
3944;DHT22;1986;52.546;13.428;2024-03-17T01:05:08;4.80;84.10
3944;DHT22;1986;52.546;13.428;2024-03-17T01:07:34;4.70;84.10
3944;DHT22;1986;52.546;13.428;2024-03-17T01:10:05;4.70;85.70
3944;DHT22;1986;52.546;13.428;2024-03-17T01:12:34;4.70;86.90
3944;DHT22;1986;52.546;13.428;2024-03-17T01:15:04;4.70;85.50
3944;DHT22;1986;52.546;13.428;2024-03-17T01:17:31;4.70;86.60
3944;DHT22;1986;52.546;13.428;2024-03-17T01:19:58;4.70;85.10
3944;DHT22;1986;52.546;13.428;2024-03-17T01:22:24;4.70;85.50
3944;DHT22;1986;52.546;13.428;2024-03-17T01:24:51;4.70;86.10
3944;DHT22;1986;52.546;13.428;2024-03-17T01:27:17;4.60;87.30
3944;DHT22;1986;52.546;13.428;2024-03-17T01:29:47;4.60;89.70
3944;DHT22;1986;52.546;13.428;2024-03-17T01:32:14;4.60;90.40
3944;DHT22;1986;52.546;13.428;2024-03-17T01:34:42;4.60;91.80
3944;DHT22;1986;52.546;13.428;2024-03-17T01:37:08;4.60;93.60
3944;DHT22;1986;52.546;13.428;2024-03-17T01:39:35;4.50;94.90
3944;DHT22;1986;52.546;13.428;2024-03-17T01:42:01;4.50;96.20
3944;DHT22;1986;52.546;13.428;2024-03-17T01:44:29;4.50;97.70
3944;DHT22;1986;52.546;13.428;2024-03-17T01:46:56;4.50;98.90
3944;DHT22;1986;52.546;13.428;2024-03-17T01:49:26;4.40;99.90
3944;DHT22;1986;52.546;13.428;2024-03-17T01:51:55;4.40;99.90
3944;DHT22;1986;52.546;13.428;2024-03-17T01:54:22;4.40;99.90
3944;DHT22;1986;52.546;13.428;2024-03-17T01:56:48;4.40;99.90
3944;DHT22;1986;52.546;13.428;2024-03-17T01:59:16;4.30;99.90
3944;DHT22;1986;52.546;13.428;2024-03-17T02:01:43;4.40;99.90
3944;DHT22;1986;52.546;13.428;2024-03-17T02:04:11;4.40;99.90
3944;DHT22;1986;52.546;13.428;2024-03-17T02:06:37;4.40;99.90
3944;DHT22;1986;52.546;13.428;2024-03-17T02:09:06;4.40;99.90
3944;DHT22;1986;52.546;13.428;2024-03-17T02:11:33;4.40;99.90
3944;DHT22;1986;52.546;13.428;2024-03-17T02:14:01;4.40;99.90
3944;DHT22;1986;52.546;13.428;2024-03-17T02:16:29;4.40;99.90
3944;DHT22;1986;52.546;13.428;2024-03-17T02:18:56;4.30;99.90
3944;DHT22;1986;52.546;13.428;2024-03-17T02:21:23;4.30;99.90
3944;DHT22;1986;52.546;13.428;2024-03-17T02:23:51;4.30;99.90
3944;DHT22;1986;52.546;13.428;2024-03-17T02:26:18;4.30;99.90
3944;DHT22;1986;52.546;13.428;2024-03-17T02:28:46;4.30;99.90
3944;DHT22;1986;52.546;13.428;2024-03-17T02:31:14;4.20;99.90
3944;DHT22;1986;52.546;13.428;2024-03-17T02:33:42;4.20;99.90
3944;DHT22;1986;52.546;13.428;2024-03-17T02:36:08;4.20;99.90
3944;DHT22;1986;52.546;13.428;2024-03-17T02:38:36;4.20;99.90
3944;DHT22;1986;52.546;13.428;2024-03-17T02:41:22;4.20;99.90
3944;DHT22;1986;52.546;13.428;2024-03-17T02:43:49;4.10;99.90
3944;DHT22;1986;52.546;13.428;2024-03-17T02:46:17;4.10;99.90
3944;DHT22;1986;52.546;13.428;2024-03-17T02:48:46;4.10;99.90
3944;DHT22;1986;52.546;13.428;2024-03-17T02:51:14;4.10;99.90
3944;DHT22;1986;52.546;13.428;2024-03-17T02:53:41;4.10;99.90
3944;DHT22;1986;52.546;13.428;2024-03-17T02:56:10;4.10;99.90
3944;DHT22;1986;52.546;13.428;2024-03-17T02:58:39;4.00;99.90
3944;DHT22;1986;52.546;13.428;2024-03-17T03:01:07;4.00;99.90
3944;DHT22;1986;52.546;13.428;2024-03-17T03:03:35;4.00;99.90
3944;DHT22;1986;52.546;13.428;2024-03-17T03:06:03;3.90;99.90
3944;DHT22;1986;52.546;13.428;2024-03-17T03:08:35;3.90;99.90
3944;DHT22;1986;52.546;13.428;2024-03-17T03:11:04;3.90;99.90
3944;DHT22;1986;52.546;13.428;2024-03-17T03:13:32;3.90;99.90
3944;DHT22;1986;52.546;13.428;2024-03-17T03:16:00;3.80;99.90
3944;DHT22;1986;52.546;13.428;2024-03-17T03:18:27;3.80;99.90
3944;DHT22;1986;52.546;13.428;2024-03-17T03:20:54;3.80;99.90
3944;DHT22;1986;52.546;13.428;2024-03-17T03:23:21;3.80;99.90
3944;DHT22;1986;52.546;13.428;2024-03-17T03:25:54;3.80;99.90
3944;DHT22;1986;52.546;13.428;2024-03-17T03:28:22;3.70;99.90
3944;DHT22;1986;52.546;13.428;2024-03-17T03:30:49;3.70;99.90
3944;DHT22;1986;52.546;13.428;2024-03-17T03:33:18;3.70;99.90
3944;DHT22;1986;52.546;13.428;2024-03-17T03:35:45;3.70;99.90
3944;DHT22;1986;52.546;13.428;2024-03-17T03:38:12;3.70;99.90
3944;DHT22;1986;52.546;13.428;2024-03-17T03:40:40;3.60;99.90
3944;DHT22;1986;52.546;13.428;2024-03-17T03:43:07;3.60;99.90
3944;DHT22;1986;52.546;13.428;2024-03-17T03:45:34;3.60;99.90
3944;DHT22;1986;52.546;13.428;2024-03-17T03:48:01;3.60;99.90
3944;DHT22;1986;52.546;13.428;2024-03-17T03:50:31;3.60;99.90
3944;DHT22;1986;52.546;13.428;2024-03-17T03:52:58;3.60;99.90
3944;DHT22;1986;52.546;13.428;2024-03-17T03:55:25;3.60;99.90
3944;DHT22;1986;52.546;13.428;2024-03-17T03:57:52;3.60;99.90
3944;DHT22;1986;52.546;13.428;2024-03-17T04:00:20;3.50;99.90
3944;DHT22;1986;52.546;13.428;2024-03-17T04:02:49;3.50;99.90
3944;DHT22;1986;52.546;13.428;2024-03-17T04:05:16;3.40;99.90
3944;DHT22;1986;52.546;13.428;2024-03-17T04:07:46;3.40;99.90
3944;DHT22;1986;52.546;13.428;2024-03-17T04:10:14;3.40;99.90
3944;DHT22;1986;52.546;13.428;2024-03-17T04:12:44;3.40;99.90
3944;DHT22;1986;52.546;13.428;2024-03-17T04:15:14;3.40;99.90
3944;DHT22;1986;52.546;13.428;2024-03-17T04:17:41;3.40;99.90
3944;DHT22;1986;52.546;13.428;2024-03-17T04:20:09;3.40;99.90
3944;DHT22;1986;52.546;13.428;2024-03-17T04:22:39;3.40;99.90
3944;DHT22;1986;52.546;13.428;2024-03-17T04:25:08;3.40;99.90
3944;DHT22;1986;52.546;13.428;2024-03-17T04:27:35;3.40;99.90
3944;DHT22;1986;52.546;13.428;2024-03-17T04:30:03;3.30;99.90
3944;DHT22;1986;52.546;13.428;2024-03-17T04:32:31;3.30;99.90
3944;DHT22;1986;52.546;13.428;2024-03-17T04:34:59;3.30;99.90
3944;DHT22;1986;52.546;13.428;2024-03-17T04:37:26;3.30;99.90
3944;DHT22;1986;52.546;13.428;2024-03-17T04:39:53;3.30;99.90
3944;DHT22;1986;52.546;13.428;2024-03-17T04:42:27;3.20;99.90
3944;DHT22;1986;52.546;13.428;2024-03-17T04:44:53;3.20;99.90
3944;DHT22;1986;52.546;13.428;2024-03-17T04:47:20;3.20;99.90
3944;DHT22;1986;52.546;13.428;2024-03-17T04:49:47;3.20;99.90
3944;DHT22;1986;52.546;13.428;2024-03-17T04:52:14;3.20;99.90
3944;DHT22;1986;52.546;13.428;2024-03-17T04:54:42;3.20;99.90
3944;DHT22;1986;52.546;13.428;2024-03-17T04:57:08;3.10;99.90
3944;DHT22;1986;52.546;13.428;2024-03-17T04:59:37;3.10;99.90
3944;DHT22;1986;52.546;13.428;2024-03-17T05:02:04;3.10;99.90
3944;DHT22;1986;52.546;13.428;2024-03-17T05:04:31;3.10;99.90
3944;DHT22;1986;52.546;13.428;2024-03-17T05:06:58;3.00;99.90
3944;DHT22;1986;52.546;13.428;2024-03-17T05:09:25;3.10;99.90
3944;DHT22;1986;52.546;13.428;2024-03-17T05:11:54;3.00;99.90
3944;DHT22;1986;52.546;13.428;2024-03-17T05:14:21;3.00;99.90
3944;DHT22;1986;52.546;13.428;2024-03-17T05:16:50;3.00;99.90
3944;DHT22;1986;52.546;13.428;2024-03-17T05:19:18;3.00;99.90
3944;DHT22;1986;52.546;13.428;2024-03-17T05:21:45;3.00;99.90
3944;DHT22;1986;52.546;13.428;2024-03-17T05:24:12;3.10;99.90
3944;DHT22;1986;52.546;13.428;2024-03-17T05:26:39;3.10;99.90
3944;DHT22;1986;52.546;13.428;2024-03-17T05:29:09;3.10;99.90
3944;DHT22;1986;52.546;13.428;2024-03-17T05:31:35;3.10;99.90
3944;DHT22;1986;52.546;13.428;2024-03-17T05:34:06;3.10;99.90
3944;DHT22;1986;52.546;13.428;2024-03-17T05:36:34;3.10;99.90
3944;DHT22;1986;52.546;13.428;2024-03-17T05:39:01;3.10;99.90
3944;DHT22;1986;52.546;13.428;2024-03-17T05:41:28;3.10;99.90
3944;DHT22;1986;52.546;13.428;2024-03-17T05:43:55;3.20;99.90
3944;DHT22;1986;52.546;13.428;2024-03-17T05:46:24;3.20;99.90
3944;DHT22;1986;52.546;13.428;2024-03-17T05:48:52;3.30;99.90
3944;DHT22;1986;52.546;13.428;2024-03-17T05:51:20;3.50;99.90
3944;DHT22;1986;52.546;13.428;2024-03-17T05:53:51;3.60;99.90
3944;DHT22;1986;52.546;13.428;2024-03-17T05:56:18;3.90;99.90
3944;DHT22;1986;52.546;13.428;2024-03-17T05:58:48;3.90;99.90
3944;DHT22;1986;52.546;13.428;2024-03-17T06:01:15;4.10;99.90
3944;DHT22;1986;52.546;13.428;2024-03-17T06:03:42;4.40;99.90
3944;DHT22;1986;52.546;13.428;2024-03-17T06:06:09;4.40;99.90
3944;DHT22;1986;52.546;13.428;2024-03-17T06:08:38;4.60;99.90
3944;DHT22;1986;52.546;13.428;2024-03-17T06:11:06;4.70;99.90
3944;DHT22;1986;52.546;13.428;2024-03-17T06:13:33;4.80;99.90
3944;DHT22;1986;52.546;13.428;2024-03-17T06:16:02;4.90;99.90
3944;DHT22;1986;52.546;13.428;2024-03-17T06:18:30;4.90;99.90
3944;DHT22;1986;52.546;13.428;2024-03-17T06:20:57;4.80;99.90
3944;DHT22;1986;52.546;13.428;2024-03-17T06:23:26;4.50;99.90
3944;DHT22;1986;52.546;13.428;2024-03-17T06:25:55;4.60;99.90
3944;DHT22;1986;52.546;13.428;2024-03-17T06:28:22;4.50;99.90
3944;DHT22;1986;52.546;13.428;2024-03-17T06:30:55;4.30;99.90
3944;DHT22;1986;52.546;13.428;2024-03-17T06:33:25;4.30;99.90
3944;DHT22;1986;52.546;13.428;2024-03-17T06:35:53;4.30;99.90
3944;DHT22;1986;52.546;13.428;2024-03-17T06:38:22;4.20;99.90
3944;DHT22;1986;52.546;13.428;2024-03-17T06:40:50;4.20;99.90
3944;DHT22;1986;52.546;13.428;2024-03-17T06:43:19;4.20;99.90
3944;DHT22;1986;52.546;13.428;2024-03-17T06:45:57;4.20;99.90
3944;DHT22;1986;52.546;13.428;2024-03-17T06:48:26;4.30;99.90
3944;DHT22;1986;52.546;13.428;2024-03-17T06:50:53;4.40;99.90
3944;DHT22;1986;52.546;13.428;2024-03-17T06:53:21;4.40;99.90
3944;DHT22;1986;52.546;13.428;2024-03-17T06:55:58;4.50;99.90
3944;DHT22;1986;52.546;13.428;2024-03-17T06:58:27;4.70;99.90
3944;DHT22;1986;52.546;13.428;2024-03-17T07:00:56;4.90;99.90
3944;DHT22;1986;52.546;13.428;2024-03-17T07:03:24;4.90;99.90
3944;DHT22;1986;52.546;13.428;2024-03-17T07:05:55;5.00;99.90
3944;DHT22;1986;52.546;13.428;2024-03-17T07:08:26;5.10;99.90
3944;DHT22;1986;52.546;13.428;2024-03-17T07:11:00;5.10;99.90
3944;DHT22;1986;52.546;13.428;2024-03-17T07:13:32;5.10;99.90
3944;DHT22;1986;52.546;13.428;2024-03-17T07:16:00;5.40;99.90
3944;DHT22;1986;52.546;13.428;2024-03-17T07:18:33;5.20;96.80
3944;DHT22;1986;52.546;13.428;2024-03-17T07:21:03;5.20;94.90
3944;DHT22;1986;52.546;13.428;2024-03-17T07:23:32;5.20;95.30
3944;DHT22;1986;52.546;13.428;2024-03-17T07:26:05;5.40;94.40
3944;DHT22;1986;52.546;13.428;2024-03-17T07:28:46;5.50;92.20
3944;DHT22;1986;52.546;13.428;2024-03-17T07:31:14;5.50;89.50
3944;DHT22;1986;52.546;13.428;2024-03-17T07:33:41;5.50;83.90
3944;DHT22;1986;52.546;13.428;2024-03-17T07:36:08;5.40;79.20
3944;DHT22;1986;52.546;13.428;2024-03-17T07:38:37;5.30;80.70
3944;DHT22;1986;52.546;13.428;2024-03-17T07:41:10;5.40;84.20
3944;DHT22;1986;52.546;13.428;2024-03-17T07:43:44;5.20;77.30
3944;DHT22;1986;52.546;13.428;2024-03-17T07:46:14;5.30;79.20
3944;DHT22;1986;52.546;13.428;2024-03-17T07:48:42;5.40;82.50
3944;DHT22;1986;52.546;13.428;2024-03-17T07:51:11;5.30;75.70
3944;DHT22;1986;52.546;13.428;2024-03-17T07:53:41;5.50;74.70
3944;DHT22;1986;52.546;13.428;2024-03-17T07:56:12;5.40;65.70
3944;DHT22;1986;52.546;13.428;2024-03-17T07:58:46;5.40;64.70
3944;DHT22;1986;52.546;13.428;2024-03-17T08:01:16;5.50;63.40
3944;DHT22;1986;52.546;13.428;2024-03-17T08:03:45;5.40;60.50
3944;DHT22;1986;52.546;13.428;2024-03-17T08:06:12;5.60;67.90
3944;DHT22;1986;52.546;13.428;2024-03-17T08:08:39;5.60;60.40
3944;DHT22;1986;52.546;13.428;2024-03-17T08:11:06;5.70;57.30
3944;DHT22;1986;52.546;13.428;2024-03-17T08:13:33;5.60;53.20
3944;DHT22;1986;52.546;13.428;2024-03-17T08:16:03;5.80;53.20
3944;DHT22;1986;52.546;13.428;2024-03-17T08:18:32;5.80;44.00
3944;DHT22;1986;52.546;13.428;2024-03-17T08:21:00;5.80;39.40
3944;DHT22;1986;52.546;13.428;2024-03-17T08:23:27;5.80;33.60
3944;DHT22;1986;52.546;13.428;2024-03-17T08:25:55;5.80;26.00
3944;DHT22;1986;52.546;13.428;2024-03-17T08:28:23;6.00;28.60
3944;DHT22;1986;52.546;13.428;2024-03-17T08:30:53;6.20;20.20
3944;DHT22;1986;52.546;13.428;2024-03-17T08:33:22;6.30;5.50
3944;DHT22;1986;52.546;13.428;2024-03-17T08:35:56;6.40;1.00
3944;DHT22;1986;52.546;13.428;2024-03-17T08:38:23;6.50;1.00
3944;DHT22;1986;52.546;13.428;2024-03-17T08:40:51;6.60;1.00
3944;DHT22;1986;52.546;13.428;2024-03-17T08:43:18;6.40;1.00
3944;DHT22;1986;52.546;13.428;2024-03-17T08:45:53;6.30;1.00
3944;DHT22;1986;52.546;13.428;2024-03-17T08:48:25;6.50;1.00
3944;DHT22;1986;52.546;13.428;2024-03-17T08:50:53;6.60;1.00
3944;DHT22;1986;52.546;13.428;2024-03-17T08:53:20;6.60;1.00
3944;DHT22;1986;52.546;13.428;2024-03-17T08:55:47;6.60;1.00
3944;DHT22;1986;52.546;13.428;2024-03-17T08:58:15;6.80;1.00
3944;DHT22;1986;52.546;13.428;2024-03-17T09:00:45;7.00;1.00
3944;DHT22;1986;52.546;13.428;2024-03-17T09:03:12;6.90;99.90
3944;DHT22;1986;52.546;13.428;2024-03-17T09:05:43;6.90;99.90
3944;DHT22;1986;52.546;13.428;2024-03-17T09:08:15;7.00;99.90
3944;DHT22;1986;52.546;13.428;2024-03-17T09:10:43;7.30;99.90
3944;DHT22;1986;52.546;13.428;2024-03-17T09:13:13;7.00;33.00
3944;DHT22;1986;52.546;13.428;2024-03-17T09:15:41;7.00;99.90
3944;DHT22;1986;52.546;13.428;2024-03-17T09:18:15;7.00;99.90
3944;DHT22;1986;52.546;13.428;2024-03-17T09:20:44;6.90;99.90
3944;DHT22;1986;52.546;13.428;2024-03-17T09:23:11;6.70;99.90
3944;DHT22;1986;52.546;13.428;2024-03-17T09:25:38;6.70;99.90
3944;DHT22;1986;52.546;13.428;2024-03-17T09:28:05;6.60;99.90
3944;DHT22;1986;52.546;13.428;2024-03-17T09:30:32;6.60;99.90
3944;DHT22;1986;52.546;13.428;2024-03-17T09:33:02;6.80;99.90
3944;DHT22;1986;52.546;13.428;2024-03-17T09:35:30;6.90;99.90
3944;DHT22;1986;52.546;13.428;2024-03-17T09:37:58;7.10;1.00
3944;DHT22;1986;52.546;13.428;2024-03-17T09:40:24;7.20;1.00
3944;DHT22;1986;52.546;13.428;2024-03-17T09:42:51;7.30;99.90
3944;DHT22;1986;52.546;13.428;2024-03-17T09:45:19;7.40;99.90
3944;DHT22;1986;52.546;13.428;2024-03-17T09:47:47;7.40;1.00
3944;DHT22;1986;52.546;13.428;2024-03-17T09:50:14;7.60;1.00
3944;DHT22;1986;52.546;13.428;2024-03-17T09:52:44;7.70;99.90
3944;DHT22;1986;52.546;13.428;2024-03-17T09:55:16;7.60;49.30
3944;DHT22;1986;52.546;13.428;2024-03-17T09:57:43;7.60;1.00
3944;DHT22;1986;52.546;13.428;2024-03-17T10:00:13;7.50;1.00
3944;DHT22;1986;52.546;13.428;2024-03-17T10:02:42;7.60;17.70
3944;DHT22;1986;52.546;13.428;2024-03-17T10:05:20;7.60;45.40
3944;DHT22;1986;52.546;13.428;2024-03-17T10:07:48;7.70;99.90
3944;DHT22;1986;52.546;13.428;2024-03-17T10:10:17;7.70;37.10
3944;DHT22;1986;52.546;13.428;2024-03-17T10:12:49;7.70;1.00
3944;DHT22;1986;52.546;13.428;2024-03-17T10:15:16;7.70;1.00
3944;DHT22;1986;52.546;13.428;2024-03-17T10:17:43;7.70;1.00
3944;DHT22;1986;52.546;13.428;2024-03-17T10:20:14;7.70;1.00
3944;DHT22;1986;52.546;13.428;2024-03-17T10:23:02;7.70;1.00
3944;DHT22;1986;52.546;13.428;2024-03-17T10:25:32;7.60;1.00
3944;DHT22;1986;52.546;13.428;2024-03-17T10:28:01;7.70;1.00
3944;DHT22;1986;52.546;13.428;2024-03-17T10:30:30;7.70;1.00
3944;DHT22;1986;52.546;13.428;2024-03-17T10:32:58;8.00;1.00
3944;DHT22;1986;52.546;13.428;2024-03-17T10:35:30;8.00;99.90
3944;DHT22;1986;52.546;13.428;2024-03-17T10:37:59;7.70;99.90
3944;DHT22;1986;52.546;13.428;2024-03-17T10:40:28;7.80;99.90
3944;DHT22;1986;52.546;13.428;2024-03-17T10:43:00;7.70;99.90
3944;DHT22;1986;52.546;13.428;2024-03-17T10:45:28;7.90;99.90
3944;DHT22;1986;52.546;13.428;2024-03-17T10:48:02;8.10;99.90
3944;DHT22;1986;52.546;13.428;2024-03-17T10:50:30;8.10;67.60
3944;DHT22;1986;52.546;13.428;2024-03-17T10:53:02;8.00;21.40
3944;DHT22;1986;52.546;13.428;2024-03-17T10:55:42;7.80;99.90
3944;DHT22;1986;52.546;13.428;2024-03-17T10:58:22;7.80;99.90
3944;DHT22;1986;52.546;13.428;2024-03-17T11:00:50;7.90;99.90
3944;DHT22;1986;52.546;13.428;2024-03-17T11:03:18;8.10;99.90
3944;DHT22;1986;52.546;13.428;2024-03-17T11:05:48;8.20;43.80
3944;DHT22;1986;52.546;13.428;2024-03-17T11:08:16;8.10;3.90
3944;DHT22;1986;52.546;13.428;2024-03-17T11:10:49;8.20;1.00
3944;DHT22;1986;52.546;13.428;2024-03-17T11:13:29;8.00;1.00
3944;DHT22;1986;52.546;13.428;2024-03-17T11:15:57;8.10;1.00
3944;DHT22;1986;52.546;13.428;2024-03-17T11:18:39;8.20;1.00
3944;DHT22;1986;52.546;13.428;2024-03-17T11:21:19;8.20;1.00
3944;DHT22;1986;52.546;13.428;2024-03-17T11:23:58;8.30;1.00
3944;DHT22;1986;52.546;13.428;2024-03-17T11:26:30;8.50;1.00
3944;DHT22;1986;52.546;13.428;2024-03-17T11:29:00;8.50;99.90
3944;DHT22;1986;52.546;13.428;2024-03-17T11:31:36;8.50;1.00
3944;DHT22;1986;52.546;13.428;2024-03-17T11:34:04;8.70;1.00
3944;DHT22;1986;52.546;13.428;2024-03-17T11:36:37;8.70;1.00
3944;DHT22;1986;52.546;13.428;2024-03-17T11:39:05;8.70;99.90
3944;DHT22;1986;52.546;13.428;2024-03-17T11:41:37;8.50;99.90
3944;DHT22;1986;52.546;13.428;2024-03-17T11:44:23;8.40;99.90
3944;DHT22;1986;52.546;13.428;2024-03-17T11:46:54;8.30;99.90
3944;DHT22;1986;52.546;13.428;2024-03-17T11:49:22;8.40;99.90
3944;DHT22;1986;52.546;13.428;2024-03-17T11:51:49;8.30;99.90
3944;DHT22;1986;52.546;13.428;2024-03-17T11:54:17;8.50;99.90
3944;DHT22;1986;52.546;13.428;2024-03-17T11:56:49;8.50;99.90
3944;DHT22;1986;52.546;13.428;2024-03-17T11:59:17;8.20;99.90
3944;DHT22;1986;52.546;13.428;2024-03-17T12:01:45;8.30;99.90
3944;DHT22;1986;52.546;13.428;2024-03-17T12:04:13;8.70;99.90
3944;DHT22;1986;52.546;13.428;2024-03-17T12:06:46;8.90;99.90
3944;DHT22;1986;52.546;13.428;2024-03-17T12:09:19;8.80;99.90
3944;DHT22;1986;52.546;13.428;2024-03-17T12:11:48;9.00;99.90
3944;DHT22;1986;52.546;13.428;2024-03-17T12:14:17;8.90;99.90
3944;DHT22;1986;52.546;13.428;2024-03-17T12:16:52;8.80;99.90
3944;DHT22;1986;52.546;13.428;2024-03-17T12:19:19;8.90;99.90
3944;DHT22;1986;52.546;13.428;2024-03-17T12:21:49;8.90;99.90
3944;DHT22;1986;52.546;13.428;2024-03-17T12:24:19;9.00;99.90
3944;DHT22;1986;52.546;13.428;2024-03-17T12:26:47;9.00;99.90
3944;DHT22;1986;52.546;13.428;2024-03-17T12:29:26;9.10;99.90
3944;DHT22;1986;52.546;13.428;2024-03-17T12:31:58;9.40;99.90
3944;DHT22;1986;52.546;13.428;2024-03-17T12:34:30;9.50;99.90
3944;DHT22;1986;52.546;13.428;2024-03-17T12:36:58;9.30;99.90
3944;DHT22;1986;52.546;13.428;2024-03-17T12:39:25;9.30;99.90
3944;DHT22;1986;52.546;13.428;2024-03-17T12:42:12;9.10;99.90
3944;DHT22;1986;52.546;13.428;2024-03-17T12:44:48;9.20;99.90
3944;DHT22;1986;52.546;13.428;2024-03-17T12:47:25;9.20;99.90
3944;DHT22;1986;52.546;13.428;2024-03-17T12:49:53;9.20;99.90
3944;DHT22;1986;52.546;13.428;2024-03-17T12:52:20;9.10;99.90
3944;DHT22;1986;52.546;13.428;2024-03-17T12:54:56;9.10;99.90
3944;DHT22;1986;52.546;13.428;2024-03-17T12:57:42;9.30;99.90
3944;DHT22;1986;52.546;13.428;2024-03-17T13:00:37;9.30;99.90
3944;DHT22;1986;52.546;13.428;2024-03-17T13:03:05;9.30;99.90
3944;DHT22;1986;52.546;13.428;2024-03-17T13:05:33;9.30;99.90
3944;DHT22;1986;52.546;13.428;2024-03-17T13:08:02;9.40;99.90
3944;DHT22;1986;52.546;13.428;2024-03-17T13:10:30;9.40;99.90
3944;DHT22;1986;52.546;13.428;2024-03-17T13:13:01;9.10;99.90
3944;DHT22;1986;52.546;13.428;2024-03-17T13:15:29;9.00;99.90
3944;DHT22;1986;52.546;13.428;2024-03-17T13:17:59;8.90;99.90
3944;DHT22;1986;52.546;13.428;2024-03-17T13:20:27;8.80;99.90
3944;DHT22;1986;52.546;13.428;2024-03-17T13:22:55;9.00;99.90
3944;DHT22;1986;52.546;13.428;2024-03-17T13:25:24;9.10;99.90
3944;DHT22;1986;52.546;13.428;2024-03-17T13:27:53;9.30;99.90
3944;DHT22;1986;52.546;13.428;2024-03-17T13:30:21;9.30;92.40
3944;DHT22;1986;52.546;13.428;2024-03-17T13:32:53;9.50;83.00
3944;DHT22;1986;52.546;13.428;2024-03-17T13:35:26;9.60;87.80
3944;DHT22;1986;52.546;13.428;2024-03-17T13:37:54;9.60;80.40
3944;DHT22;1986;52.546;13.428;2024-03-17T13:40:23;9.70;84.30
3944;DHT22;1986;52.546;13.428;2024-03-17T13:42:52;9.80;73.00
3944;DHT22;1986;52.546;13.428;2024-03-17T13:45:20;9.80;70.90
3944;DHT22;1986;52.546;13.428;2024-03-17T13:47:49;9.50;62.20
3944;DHT22;1986;52.546;13.428;2024-03-17T13:50:17;9.30;87.40
3944;DHT22;1986;52.546;13.428;2024-03-17T13:52:49;9.30;99.90
3944;DHT22;1986;52.546;13.428;2024-03-17T13:55:17;9.20;99.90
3944;DHT22;1986;52.546;13.428;2024-03-17T13:57:47;9.20;99.90
3944;DHT22;1986;52.546;13.428;2024-03-17T14:00:17;9.50;99.90
3944;DHT22;1986;52.546;13.428;2024-03-17T14:02:45;9.70;93.20
3944;DHT22;1986;52.546;13.428;2024-03-17T14:05:13;9.90;74.20
3944;DHT22;1986;52.546;13.428;2024-03-17T14:07:40;9.80;17.70
3944;DHT22;1986;52.546;13.428;2024-03-17T14:10:10;9.50;1.00
3944;DHT22;1986;52.546;13.428;2024-03-17T14:12:38;9.50;5.00
3944;DHT22;1986;52.546;13.428;2024-03-17T14:15:06;9.50;3.30
3944;DHT22;1986;52.546;13.428;2024-03-17T14:17:36;9.50;1.00
3944;DHT22;1986;52.546;13.428;2024-03-17T14:20:03;9.50;1.00
3944;DHT22;1986;52.546;13.428;2024-03-17T14:22:31;9.40;1.00
3944;DHT22;1986;52.546;13.428;2024-03-17T14:24:58;9.40;17.20
3944;DHT22;1986;52.546;13.428;2024-03-17T14:27:27;9.30;87.90
3944;DHT22;1986;52.546;13.428;2024-03-17T14:29:54;9.30;99.90
3944;DHT22;1986;52.546;13.428;2024-03-17T14:32:21;9.10;99.90
3944;DHT22;1986;52.546;13.428;2024-03-17T14:34:48;9.00;99.90
3944;DHT22;1986;52.546;13.428;2024-03-17T14:37:15;9.10;99.90
3944;DHT22;1986;52.546;13.428;2024-03-17T14:39:42;9.30;99.90
3944;DHT22;1986;52.546;13.428;2024-03-17T14:42:12;9.30;99.90
3944;DHT22;1986;52.546;13.428;2024-03-17T14:44:41;9.20;99.90
3944;DHT22;1986;52.546;13.428;2024-03-17T14:47:08;9.30;99.90
3944;DHT22;1986;52.546;13.428;2024-03-17T14:49:36;9.30;99.90
3944;DHT22;1986;52.546;13.428;2024-03-17T14:52:03;9.40;99.90
3944;DHT22;1986;52.546;13.428;2024-03-17T14:54:31;9.10;99.90
3944;DHT22;1986;52.546;13.428;2024-03-17T14:56:58;9.10;99.90
3944;DHT22;1986;52.546;13.428;2024-03-17T14:59:25;9.00;99.90
3944;DHT22;1986;52.546;13.428;2024-03-17T15:01:54;8.90;99.90
3944;DHT22;1986;52.546;13.428;2024-03-17T15:04:20;8.80;99.90
3944;DHT22;1986;52.546;13.428;2024-03-17T15:06:47;8.80;99.90
3944;DHT22;1986;52.546;13.428;2024-03-17T15:09:14;8.70;99.90
3944;DHT22;1986;52.546;13.428;2024-03-17T15:11:44;8.60;99.90
3944;DHT22;1986;52.546;13.428;2024-03-17T15:14:12;8.60;99.90
3944;DHT22;1986;52.546;13.428;2024-03-17T15:16:39;8.50;99.90
3944;DHT22;1986;52.546;13.428;2024-03-17T15:19:07;8.50;99.90
3944;DHT22;1986;52.546;13.428;2024-03-17T15:21:35;8.60;99.90
3944;DHT22;1986;52.546;13.428;2024-03-17T15:24:03;8.70;99.90
3944;DHT22;1986;52.546;13.428;2024-03-17T15:26:30;8.60;99.90
3944;DHT22;1986;52.546;13.428;2024-03-17T15:28:57;8.70;99.90
3944;DHT22;1986;52.546;13.428;2024-03-17T15:31:29;8.70;99.90
3944;DHT22;1986;52.546;13.428;2024-03-17T15:33:58;8.70;99.90
3944;DHT22;1986;52.546;13.428;2024-03-17T15:36:26;8.70;99.90
3944;DHT22;1986;52.546;13.428;2024-03-17T15:38:55;8.70;99.90
3944;DHT22;1986;52.546;13.428;2024-03-17T15:41:22;8.70;99.90
3944;DHT22;1986;52.546;13.428;2024-03-17T15:43:51;8.70;99.90
3944;DHT22;1986;52.546;13.428;2024-03-17T15:46:20;8.70;99.90
3944;DHT22;1986;52.546;13.428;2024-03-17T15:48:48;8.70;99.90
3944;DHT22;1986;52.546;13.428;2024-03-17T15:51:16;8.60;99.90
3944;DHT22;1986;52.546;13.428;2024-03-17T15:53:45;8.60;99.90
3944;DHT22;1986;52.546;13.428;2024-03-17T15:56:15;8.60;99.90
3944;DHT22;1986;52.546;13.428;2024-03-17T15:58:42;8.60;99.90
3944;DHT22;1986;52.546;13.428;2024-03-17T16:01:09;8.60;99.90
3944;DHT22;1986;52.546;13.428;2024-03-17T16:03:38;8.70;99.90
3944;DHT22;1986;52.546;13.428;2024-03-17T16:06:10;8.70;99.90
3944;DHT22;1986;52.546;13.428;2024-03-17T16:08:39;8.60;99.90
3944;DHT22;1986;52.546;13.428;2024-03-17T16:11:16;8.50;99.90
3944;DHT22;1986;52.546;13.428;2024-03-17T16:13:45;8.50;99.90
3944;DHT22;1986;52.546;13.428;2024-03-17T16:16:16;8.50;99.90